sensor_id;sensor_type;location;lat;lon;timestamp;P1;P2;P0
62599;PMS7003;48671;48.922;2.346;2023-03-05T00:00:34;2.00;2.00;1.25
62599;PMS7003;48671;48.922;2.346;2023-03-05T00:02:59;11.67;11.67;6.33
62599;PMS7003;48671;48.922;2.346;2023-03-05T00:05:25;10.25;10.00;5.50
62599;PMS7003;48671;48.922;2.346;2023-03-05T00:07:50;7.50;7.50;4.00
62599;PMS7003;48671;48.922;2.346;2023-03-05T00:10:15;0.00;0.00;0.00
62599;PMS7003;48671;48.922;2.346;2023-03-05T00:12:41;13.50;13.50;7.75
62599;PMS7003;48671;48.922;2.346;2023-03-05T00:15:06;19.75;19.75;10.75
62599;PMS7003;48671;48.922;2.346;2023-03-05T00:17:33;9.75;9.75;5.50
62599;PMS7003;48671;48.922;2.346;2023-03-05T00:19:58;7.75;7.75;4.25
62599;PMS7003;48671;48.922;2.346;2023-03-05T00:22:23;5.00;5.00;2.50
62599;PMS7003;48671;48.922;2.346;2023-03-05T00:24:49;15.33;15.33;8.33
62599;PMS7003;48671;48.922;2.346;2023-03-05T00:27:15;20.00;20.00;11.50
62599;PMS7003;48671;48.922;2.346;2023-03-05T00:29:40;16.50;16.50;8.25
62599;PMS7003;48671;48.922;2.346;2023-03-05T00:32:06;14.25;14.25;8.25
62599;PMS7003;48671;48.922;2.346;2023-03-05T00:34:31;8.00;8.00;3.50
62599;PMS7003;48671;48.922;2.346;2023-03-05T00:36:56;19.50;19.50;11.00
62599;PMS7003;48671;48.922;2.346;2023-03-05T00:39:22;18.33;18.33;9.67
62599;PMS7003;48671;48.922;2.346;2023-03-05T00:41:47;28.25;27.50;13.75
62599;PMS7003;48671;48.922;2.346;2023-03-05T00:44:13;11.00;11.00;5.25
62599;PMS7003;48671;48.922;2.346;2023-03-05T00:46:39;15.25;15.25;6.75
62599;PMS7003;48671;48.922;2.346;2023-03-05T00:49:04;13.33;13.33;7.00
62599;PMS7003;48671;48.922;2.346;2023-03-05T00:51:30;19.00;19.00;11.67
62599;PMS7003;48671;48.922;2.346;2023-03-05T00:53:55;40.00;38.50;23.50
62599;PMS7003;48671;48.922;2.346;2023-03-05T00:56:21;45.33;42.33;25.33
62599;PMS7003;48671;48.922;2.346;2023-03-05T00:58:46;47.67;44.00;26.33
62599;PMS7003;48671;48.922;2.346;2023-03-05T01:01:12;26.33;26.00;16.33
62599;PMS7003;48671;48.922;2.346;2023-03-05T01:03:37;48.67;44.33;27.00
62599;PMS7003;48671;48.922;2.346;2023-03-05T01:06:04;52.50;47.25;28.50
62599;PMS7003;48671;48.922;2.346;2023-03-05T01:08:32;99.80;90.80;57.80
62599;PMS7003;48671;48.922;2.346;2023-03-05T01:10:57;37.33;36.00;20.33
62599;PMS7003;48671;48.922;2.346;2023-03-05T01:13:23;25.67;25.67;15.33
62599;PMS7003;48671;48.922;2.346;2023-03-05T01:15:48;40.00;37.25;19.00
62599;PMS7003;48671;48.922;2.346;2023-03-05T01:18:15;53.25;46.75;28.25
62599;PMS7003;48671;48.922;2.346;2023-03-05T01:20:40;86.80;76.00;46.20
62599;PMS7003;48671;48.922;2.346;2023-03-05T01:23:06;61.67;53.33;33.67
62599;PMS7003;48671;48.922;2.346;2023-03-05T01:25:31;62.00;54.33;32.67
62599;PMS7003;48671;48.922;2.346;2023-03-05T01:27:56;85.00;73.00;46.75
62599;PMS7003;48671;48.922;2.346;2023-03-05T01:30:22;85.75;73.25;46.75
62599;PMS7003;48671;48.922;2.346;2023-03-05T01:32:47;68.00;58.00;35.67
62599;PMS7003;48671;48.922;2.346;2023-03-05T01:35:20;63.33;55.00;34.00
62599;PMS7003;48671;48.922;2.346;2023-03-05T01:37:47;95.00;86.20;55.00
62599;PMS7003;48671;48.922;2.346;2023-03-05T01:40:14;107.50;101.75;65.50
62599;PMS7003;48671;48.922;2.346;2023-03-05T01:42:46;100.60;92.20;59.00
62599;PMS7003;48671;48.922;2.346;2023-03-05T01:45:13;106.00;98.50;63.75
62599;PMS7003;48671;48.922;2.346;2023-03-05T01:47:42;130.20;127.20;83.40
62599;PMS7003;48671;48.922;2.346;2023-03-05T01:50:12;128.75;126.50;84.25
62599;PMS7003;48671;48.922;2.346;2023-03-05T01:52:42;111.75;103.50;67.00
62599;PMS7003;48671;48.922;2.346;2023-03-05T01:55:17;156.20;156.20;104.20
62599;PMS7003;48671;48.922;2.346;2023-03-05T01:57:55;145.25;145.25;94.50
62599;PMS7003;48671;48.922;2.346;2023-03-05T02:00:25;188.75;182.25;123.75
62599;PMS7003;48671;48.922;2.346;2023-03-05T02:02:54;142.00;140.50;90.50
62599;PMS7003;48671;48.922;2.346;2023-03-05T02:05:25;172.75;169.75;113.00
62599;PMS7003;48671;48.922;2.346;2023-03-05T02:07:54;173.50;171.00;114.50
62599;PMS7003;48671;48.922;2.346;2023-03-05T02:10:25;132.25;131.50;86.00
62599;PMS7003;48671;48.922;2.346;2023-03-05T02:12:53;141.00;138.80;92.40
62599;PMS7003;48671;48.922;2.346;2023-03-05T02:15:22;171.75;171.25;113.75
62599;PMS7003;48671;48.922;2.346;2023-03-05T02:17:48;176.00;171.33;115.67
62599;PMS7003;48671;48.922;2.346;2023-03-05T02:20:18;206.67;200.00;139.00
62599;PMS7003;48671;48.922;2.346;2023-03-05T02:22:46;196.25;193.50;129.75
62599;PMS7003;48671;48.922;2.346;2023-03-05T02:25:13;180.00;179.75;122.25
62599;PMS7003;48671;48.922;2.346;2023-03-05T02:27:38;201.75;200.50;136.50
62599;PMS7003;48671;48.922;2.346;2023-03-05T02:30:06;175.00;173.00;116.00
62599;PMS7003;48671;48.922;2.346;2023-03-05T02:32:32;225.67;225.00;153.00
62599;PMS7003;48671;48.922;2.346;2023-03-05T02:34:58;222.50;218.00;153.25
62599;PMS7003;48671;48.922;2.346;2023-03-05T02:37:23;205.75;202.75;137.75
62599;PMS7003;48671;48.922;2.346;2023-03-05T02:39:48;234.50;230.00;167.00
62599;PMS7003;48671;48.922;2.346;2023-03-05T02:42:14;221.25;214.00;147.50
62599;PMS7003;48671;48.922;2.346;2023-03-05T02:44:39;206.75;206.00;140.75
62599;PMS7003;48671;48.922;2.346;2023-03-05T02:47:04;231.75;229.75;161.50
62599;PMS7003;48671;48.922;2.346;2023-03-05T02:49:30;240.75;238.25;168.25
62599;PMS7003;48671;48.922;2.346;2023-03-05T02:51:56;252.00;245.75;171.50
62599;PMS7003;48671;48.922;2.346;2023-03-05T02:54:21;248.00;242.75;171.25
62599;PMS7003;48671;48.922;2.346;2023-03-05T02:56:46;242.75;235.00;166.25
62599;PMS7003;48671;48.922;2.346;2023-03-05T02:59:12;249.50;246.50;173.50
62599;PMS7003;48671;48.922;2.346;2023-03-05T03:01:37;236.75;232.50;163.75
62599;PMS7003;48671;48.922;2.346;2023-03-05T03:04:02;249.50;246.75;178.00
62599;PMS7003;48671;48.922;2.346;2023-03-05T03:06:28;232.75;229.25;160.50
62599;PMS7003;48671;48.922;2.346;2023-03-05T03:08:53;253.50;248.25;178.00
62599;PMS7003;48671;48.922;2.346;2023-03-05T03:11:18;236.50;235.75;167.75
62599;PMS7003;48671;48.922;2.346;2023-03-05T03:13:45;225.25;222.00;156.25
62599;PMS7003;48671;48.922;2.346;2023-03-05T03:16:11;243.25;235.50;165.75
62599;PMS7003;48671;48.922;2.346;2023-03-05T03:18:38;238.75;235.00;163.50
62599;PMS7003;48671;48.922;2.346;2023-03-05T03:21:04;255.00;251.25;178.50
62599;PMS7003;48671;48.922;2.346;2023-03-05T03:23:30;235.50;232.25;165.75
62599;PMS7003;48671;48.922;2.346;2023-03-05T03:25:57;229.25;228.00;154.75
62599;PMS7003;48671;48.922;2.346;2023-03-05T03:28:22;254.25;250.25;177.00
62599;PMS7003;48671;48.922;2.346;2023-03-05T03:30:48;245.00;240.75;167.50
62599;PMS7003;48671;48.922;2.346;2023-03-05T03:33:13;241.00;239.00;168.25
62599;PMS7003;48671;48.922;2.346;2023-03-05T03:35:38;268.75;265.00;192.50
62599;PMS7003;48671;48.922;2.346;2023-03-05T03:38:04;234.25;231.00;159.50
62599;PMS7003;48671;48.922;2.346;2023-03-05T03:40:30;230.75;228.00;159.75
62599;PMS7003;48671;48.922;2.346;2023-03-05T03:42:55;254.75;247.50;175.25
62599;PMS7003;48671;48.922;2.346;2023-03-05T03:45:21;204.50;201.50;139.50
62599;PMS7003;48671;48.922;2.346;2023-03-05T03:47:47;257.25;252.75;179.00
62599;PMS7003;48671;48.922;2.346;2023-03-05T03:50:13;251.25;248.75;176.25
62599;PMS7003;48671;48.922;2.346;2023-03-05T03:52:38;240.00;238.75;167.00
62599;PMS7003;48671;48.922;2.346;2023-03-05T03:55:04;282.50;278.00;196.75
62599;PMS7003;48671;48.922;2.346;2023-03-05T03:57:30;258.50;254.00;176.75
62599;PMS7003;48671;48.922;2.346;2023-03-05T03:59:57;284.00;278.75;191.00
62599;PMS7003;48671;48.922;2.346;2023-03-05T04:02:22;286.00;280.25;201.50
62599;PMS7003;48671;48.922;2.346;2023-03-05T04:04:48;263.50;257.00;184.25
62599;PMS7003;48671;48.922;2.346;2023-03-05T04:07:13;229.75;226.50;159.50
62599;PMS7003;48671;48.922;2.346;2023-03-05T04:09:39;256.25;252.50;176.75
62599;PMS7003;48671;48.922;2.346;2023-03-05T04:12:04;230.25;224.00;152.25
62599;PMS7003;48671;48.922;2.346;2023-03-05T04:14:30;253.75;251.25;177.50
62599;PMS7003;48671;48.922;2.346;2023-03-05T04:16:55;249.50;247.25;170.00
62599;PMS7003;48671;48.922;2.346;2023-03-05T04:19:20;229.50;224.00;154.00
62599;PMS7003;48671;48.922;2.346;2023-03-05T04:21:46;248.50;243.75;169.75
62599;PMS7003;48671;48.922;2.346;2023-03-05T04:24:11;234.00;230.75;159.50
62599;PMS7003;48671;48.922;2.346;2023-03-05T04:26:37;259.00;255.50;180.75
62599;PMS7003;48671;48.922;2.346;2023-03-05T04:29:02;279.75;276.00;194.00
62599;PMS7003;48671;48.922;2.346;2023-03-05T04:31:27;231.50;231.50;162.00
62599;PMS7003;48671;48.922;2.346;2023-03-05T04:33:53;294.25;290.50;201.25
62599;PMS7003;48671;48.922;2.346;2023-03-05T04:36:19;277.00;275.50;194.00
62599;PMS7003;48671;48.922;2.346;2023-03-05T04:38:45;258.00;255.25;178.75
62599;PMS7003;48671;48.922;2.346;2023-03-05T04:41:10;274.25;273.25;189.50
62599;PMS7003;48671;48.922;2.346;2023-03-05T04:43:35;303.75;300.75;210.75
62599;PMS7003;48671;48.922;2.346;2023-03-05T04:46:01;290.75;289.75;205.75
62599;PMS7003;48671;48.922;2.346;2023-03-05T04:48:26;296.00;288.75;202.25
62599;PMS7003;48671;48.922;2.346;2023-03-05T04:50:51;231.25;229.50;162.75
62599;PMS7003;48671;48.922;2.346;2023-03-05T04:53:17;259.00;255.50;175.25
62599;PMS7003;48671;48.922;2.346;2023-03-05T04:55:42;285.75;284.75;197.00
62599;PMS7003;48671;48.922;2.346;2023-03-05T04:58:07;290.75;284.00;198.75
62599;PMS7003;48671;48.922;2.346;2023-03-05T05:00:33;298.75;298.75;201.75
62599;PMS7003;48671;48.922;2.346;2023-03-05T05:02:58;290.00;284.00;194.67
62599;PMS7003;48671;48.922;2.346;2023-03-05T05:05:24;274.00;272.00;192.50
62599;PMS7003;48671;48.922;2.346;2023-03-05T05:07:57;295.25;295.25;206.75
62599;PMS7003;48671;48.922;2.346;2023-03-05T05:10:23;288.50;286.00;199.75
62599;PMS7003;48671;48.922;2.346;2023-03-05T05:12:49;305.67;304.67;217.00
62599;PMS7003;48671;48.922;2.346;2023-03-05T05:15:15;292.75;288.75;206.75
62599;PMS7003;48671;48.922;2.346;2023-03-05T05:17:40;264.00;258.50;181.50
62599;PMS7003;48671;48.922;2.346;2023-03-05T05:20:06;256.50;252.75;174.00
62599;PMS7003;48671;48.922;2.346;2023-03-05T05:22:32;256.25;252.25;177.00
62599;PMS7003;48671;48.922;2.346;2023-03-05T05:24:58;279.75;279.75;203.00
62599;PMS7003;48671;48.922;2.346;2023-03-05T05:27:24;254.00;252.25;176.75
62599;PMS7003;48671;48.922;2.346;2023-03-05T05:29:49;304.00;301.00;212.75
62599;PMS7003;48671;48.922;2.346;2023-03-05T05:32:15;276.00;271.75;193.75
62599;PMS7003;48671;48.922;2.346;2023-03-05T05:34:41;235.75;232.75;160.25
62599;PMS7003;48671;48.922;2.346;2023-03-05T05:37:06;300.75;300.50;221.00
62599;PMS7003;48671;48.922;2.346;2023-03-05T05:39:32;260.25;259.50;188.75
62599;PMS7003;48671;48.922;2.346;2023-03-05T05:41:57;256.25;254.50;185.25
62599;PMS7003;48671;48.922;2.346;2023-03-05T05:44:22;236.75;234.75;167.75
62599;PMS7003;48671;48.922;2.346;2023-03-05T05:46:48;249.25;246.25;177.75
62599;PMS7003;48671;48.922;2.346;2023-03-05T05:49:13;177.50;173.00;115.75
62599;PMS7003;48671;48.922;2.346;2023-03-05T05:51:38;240.50;236.50;169.50
62599;PMS7003;48671;48.922;2.346;2023-03-05T05:54:03;229.50;226.75;163.00
62599;PMS7003;48671;48.922;2.346;2023-03-05T05:56:29;236.50;236.50;171.25
62599;PMS7003;48671;48.922;2.346;2023-03-05T05:58:54;236.50;232.25;168.75
62599;PMS7003;48671;48.922;2.346;2023-03-05T06:01:22;237.25;231.75;164.75
62599;PMS7003;48671;48.922;2.346;2023-03-05T06:03:50;217.25;215.50;159.75
62599;PMS7003;48671;48.922;2.346;2023-03-05T06:06:17;243.75;239.00;175.00
62599;PMS7003;48671;48.922;2.346;2023-03-05T06:08:44;223.50;223.50;162.25
62599;PMS7003;48671;48.922;2.346;2023-03-05T06:11:10;222.00;219.50;161.00
62599;PMS7003;48671;48.922;2.346;2023-03-05T06:13:36;237.25;230.00;168.75
62599;PMS7003;48671;48.922;2.346;2023-03-05T06:16:03;240.00;234.50;170.25
62599;PMS7003;48671;48.922;2.346;2023-03-05T06:18:30;218.25;216.75;159.25
62599;PMS7003;48671;48.922;2.346;2023-03-05T06:20:58;245.75;240.75;176.75
62599;PMS7003;48671;48.922;2.346;2023-03-05T06:23:26;225.25;220.50;156.25
62599;PMS7003;48671;48.922;2.346;2023-03-05T06:25:52;228.50;220.25;161.25
62599;PMS7003;48671;48.922;2.346;2023-03-05T06:28:18;204.00;199.00;145.50
62599;PMS7003;48671;48.922;2.346;2023-03-05T06:30:43;197.25;196.25;141.25
62599;PMS7003;48671;48.922;2.346;2023-03-05T06:33:09;210.25;205.00;149.75
62599;PMS7003;48671;48.922;2.346;2023-03-05T06:35:36;221.25;219.50;165.00
62599;PMS7003;48671;48.922;2.346;2023-03-05T06:38:03;221.50;219.00;164.00
62599;PMS7003;48671;48.922;2.346;2023-03-05T06:40:29;0.00;0.00;0.00
62599;PMS7003;48671;48.922;2.346;2023-03-05T06:42:54;0.00;0.00;0.00
62599;PMS7003;48671;48.922;2.346;2023-03-05T06:45:19;0.00;0.00;0.00
62599;PMS7003;48671;48.922;2.346;2023-03-05T06:47:45;0.00;0.00;0.00
62599;PMS7003;48671;48.922;2.346;2023-03-05T06:50:10;0.00;0.00;0.00
62599;PMS7003;48671;48.922;2.346;2023-03-05T06:52:36;0.00;0.00;0.00
62599;PMS7003;48671;48.922;2.346;2023-03-05T06:55:04;0.00;0.00;0.00
62599;PMS7003;48671;48.922;2.346;2023-03-05T06:57:29;0.00;0.00;0.00
62599;PMS7003;48671;48.922;2.346;2023-03-05T06:59:55;0.00;0.00;0.00
62599;PMS7003;48671;48.922;2.346;2023-03-05T07:02:20;0.00;0.00;0.00
62599;PMS7003;48671;48.922;2.346;2023-03-05T07:04:45;0.00;0.00;0.00
62599;PMS7003;48671;48.922;2.346;2023-03-05T07:07:11;0.00;0.00;0.00
62599;PMS7003;48671;48.922;2.346;2023-03-05T07:09:36;0.00;0.00;0.00
62599;PMS7003;48671;48.922;2.346;2023-03-05T07:12:07;0.00;0.00;0.00
62599;PMS7003;48671;48.922;2.346;2023-03-05T07:14:36;0.00;0.00;0.00
62599;PMS7003;48671;48.922;2.346;2023-03-05T07:17:05;0.00;0.00;0.00
62599;PMS7003;48671;48.922;2.346;2023-03-05T07:19:30;0.00;0.00;0.00
62599;PMS7003;48671;48.922;2.346;2023-03-05T07:21:56;0.00;0.00;0.00
62599;PMS7003;48671;48.922;2.346;2023-03-05T07:24:21;0.00;0.00;0.00
62599;PMS7003;48671;48.922;2.346;2023-03-05T07:26:51;0.00;0.00;0.00
62599;PMS7003;48671;48.922;2.346;2023-03-05T07:29:16;0.00;0.00;0.00
62599;PMS7003;48671;48.922;2.346;2023-03-05T07:31:41;0.00;0.00;0.00
62599;PMS7003;48671;48.922;2.346;2023-03-05T07:34:08;0.00;0.00;0.00
62599;PMS7003;48671;48.922;2.346;2023-03-05T07:36:34;0.00;0.00;0.00
62599;PMS7003;48671;48.922;2.346;2023-03-05T07:38:59;0.00;0.00;0.00
62599;PMS7003;48671;48.922;2.346;2023-03-05T07:41:25;0.00;0.00;0.00
62599;PMS7003;48671;48.922;2.346;2023-03-05T07:43:51;0.00;0.00;0.00
62599;PMS7003;48671;48.922;2.346;2023-03-05T07:46:18;0.00;0.00;0.00
62599;PMS7003;48671;48.922;2.346;2023-03-05T07:48:46;0.00;0.00;0.00
62599;PMS7003;48671;48.922;2.346;2023-03-05T07:51:12;0.00;0.00;0.00
62599;PMS7003;48671;48.922;2.346;2023-03-05T07:53:43;0.00;0.00;0.00
62599;PMS7003;48671;48.922;2.346;2023-03-05T07:56:10;0.00;0.00;0.00
62599;PMS7003;48671;48.922;2.346;2023-03-05T07:58:35;0.00;0.00;0.00
62599;PMS7003;48671;48.922;2.346;2023-03-05T08:01:01;0.00;0.00;0.00
62599;PMS7003;48671;48.922;2.346;2023-03-05T08:03:27;0.00;0.00;0.00
62599;PMS7003;48671;48.922;2.346;2023-03-05T08:05:52;0.00;0.00;0.00
62599;PMS7003;48671;48.922;2.346;2023-03-05T08:08:18;0.00;0.00;0.00
62599;PMS7003;48671;48.922;2.346;2023-03-05T08:10:43;0.00;0.00;0.00
62599;PMS7003;48671;48.922;2.346;2023-03-05T08:13:09;0.00;0.00;0.00
62599;PMS7003;48671;48.922;2.346;2023-03-05T08:15:35;0.00;0.00;0.00
62599;PMS7003;48671;48.922;2.346;2023-03-05T08:18:02;0.00;0.00;0.00
62599;PMS7003;48671;48.922;2.346;2023-03-05T08:20:27;0.00;0.00;0.00
62599;PMS7003;48671;48.922;2.346;2023-03-05T08:22:52;0.00;0.00;0.00
62599;PMS7003;48671;48.922;2.346;2023-03-05T08:25:18;0.00;0.00;0.00
62599;PMS7003;48671;48.922;2.346;2023-03-05T08:27:44;0.00;0.00;0.00
62599;PMS7003;48671;48.922;2.346;2023-03-05T08:30:11;0.00;0.00;0.00
62599;PMS7003;48671;48.922;2.346;2023-03-05T08:32:38;0.00;0.00;0.00
62599;PMS7003;48671;48.922;2.346;2023-03-05T08:35:04;0.00;0.00;0.00
62599;PMS7003;48671;48.922;2.346;2023-03-05T08:37:30;0.00;0.00;0.00
62599;PMS7003;48671;48.922;2.346;2023-03-05T08:39:56;0.00;0.00;0.00
62599;PMS7003;48671;48.922;2.346;2023-03-05T08:42:22;0.00;0.00;0.00
62599;PMS7003;48671;48.922;2.346;2023-03-05T08:44:48;0.00;0.00;0.00
62599;PMS7003;48671;48.922;2.346;2023-03-05T08:47:14;0.00;0.00;0.00
62599;PMS7003;48671;48.922;2.346;2023-03-05T08:49:39;0.00;0.00;0.00
62599;PMS7003;48671;48.922;2.346;2023-03-05T08:52:04;0.00;0.00;0.00
62599;PMS7003;48671;48.922;2.346;2023-03-05T08:54:30;0.00;0.00;0.00
62599;PMS7003;48671;48.922;2.346;2023-03-05T08:56:55;0.00;0.00;0.00
62599;PMS7003;48671;48.922;2.346;2023-03-05T08:59:20;0.00;0.00;0.00
62599;PMS7003;48671;48.922;2.346;2023-03-05T09:01:46;0.00;0.00;0.00
62599;PMS7003;48671;48.922;2.346;2023-03-05T09:04:11;0.00;0.00;0.00
62599;PMS7003;48671;48.922;2.346;2023-03-05T09:06:37;0.00;0.00;0.00
62599;PMS7003;48671;48.922;2.346;2023-03-05T09:09:04;0.00;0.00;0.00
62599;PMS7003;48671;48.922;2.346;2023-03-05T09:11:31;0.00;0.00;0.00
62599;PMS7003;48671;48.922;2.346;2023-03-05T09:13:59;0.00;0.00;0.00
62599;PMS7003;48671;48.922;2.346;2023-03-05T09:16:25;0.00;0.00;0.00
62599;PMS7003;48671;48.922;2.346;2023-03-05T09:18:51;0.00;0.00;0.00
62599;PMS7003;48671;48.922;2.346;2023-03-05T09:21:16;0.00;0.00;0.00
62599;PMS7003;48671;48.922;2.346;2023-03-05T09:23:42;0.00;0.00;0.00
62599;PMS7003;48671;48.922;2.346;2023-03-05T09:26:09;0.00;0.00;0.00
62599;PMS7003;48671;48.922;2.346;2023-03-05T09:28:37;0.00;0.00;0.00
62599;PMS7003;48671;48.922;2.346;2023-03-05T09:31:03;0.00;0.00;0.00
62599;PMS7003;48671;48.922;2.346;2023-03-05T09:33:31;0.00;0.00;0.00
62599;PMS7003;48671;48.922;2.346;2023-03-05T09:35:58;0.00;0.00;0.00
62599;PMS7003;48671;48.922;2.346;2023-03-05T09:38:24;0.00;0.00;0.00
62599;PMS7003;48671;48.922;2.346;2023-03-05T09:43:54;0.00;0.00;0.00
62599;PMS7003;48671;48.922;2.346;2023-03-05T09:48:59;0.00;0.00;0.00
62599;PMS7003;48671;48.922;2.346;2023-03-05T09:51:49;0.00;0.00;0.00
62599;PMS7003;48671;48.922;2.346;2023-03-05T09:54:24;0.00;0.00;0.00
62599;PMS7003;48671;48.922;2.346;2023-03-05T09:57:01;0.00;0.00;0.00
62599;PMS7003;48671;48.922;2.346;2023-03-05T09:59:32;0.00;0.00;0.00
62599;PMS7003;48671;48.922;2.346;2023-03-05T10:02:12;0.00;0.00;0.00
62599;PMS7003;48671;48.922;2.346;2023-03-05T10:04:51;0.00;0.00;0.00
62599;PMS7003;48671;48.922;2.346;2023-03-05T10:07:26;0.00;0.00;0.00
62599;PMS7003;48671;48.922;2.346;2023-03-05T10:10:02;0.00;0.00;0.00
62599;PMS7003;48671;48.922;2.346;2023-03-05T10:12:42;0.00;0.00;0.00
62599;PMS7003;48671;48.922;2.346;2023-03-05T10:15:19;0.00;0.00;0.00
62599;PMS7003;48671;48.922;2.346;2023-03-05T10:20:47;0.00;0.00;0.00
62599;PMS7003;48671;48.922;2.346;2023-03-05T10:31:14;0.00;0.00;0.00
62599;PMS7003;48671;48.922;2.346;2023-03-05T10:40:25;0.00;0.00;0.00
62599;PMS7003;48671;48.922;2.346;2023-03-05T10:45:55;0.00;0.00;0.00
62599;PMS7003;48671;48.922;2.346;2023-03-05T10:51:22;0.00;0.00;0.00
62599;PMS7003;48671;48.922;2.346;2023-03-05T10:56:43;0.00;0.00;0.00
62599;PMS7003;48671;48.922;2.346;2023-03-05T10:59:09;0.00;0.00;0.00
62599;PMS7003;48671;48.922;2.346;2023-03-05T11:01:34;0.00;0.00;0.00
62599;PMS7003;48671;48.922;2.346;2023-03-05T11:04:02;0.00;0.00;0.00
62599;PMS7003;48671;48.922;2.346;2023-03-05T11:14:33;0.00;0.00;0.00
62599;PMS7003;48671;48.922;2.346;2023-03-05T11:17:00;0.00;0.00;0.00
62599;PMS7003;48671;48.922;2.346;2023-03-05T11:19:31;0.00;0.00;0.00
62599;PMS7003;48671;48.922;2.346;2023-03-05T11:24:44;0.00;0.00;0.00
62599;PMS7003;48671;48.922;2.346;2023-03-05T11:27:36;0.00;0.00;0.00
62599;PMS7003;48671;48.922;2.346;2023-03-05T11:30:18;0.00;0.00;0.00
62599;PMS7003;48671;48.922;2.346;2023-03-05T11:32:46;0.00;0.00;0.00
62599;PMS7003;48671;48.922;2.346;2023-03-05T11:41:13;0.00;0.00;0.00
62599;PMS7003;48671;48.922;2.346;2023-03-05T11:43:42;0.00;0.00;0.00
62599;PMS7003;48671;48.922;2.346;2023-03-05T11:46:08;0.00;0.00;0.00
62599;PMS7003;48671;48.922;2.346;2023-03-05T11:48:37;0.00;0.00;0.00
62599;PMS7003;48671;48.922;2.346;2023-03-05T11:52:05;0.00;0.00;0.00
62599;PMS7003;48671;48.922;2.346;2023-03-05T11:54:09;0.00;0.00;0.00
62599;PMS7003;48671;48.922;2.346;2023-03-05T11:56:41;0.00;0.00;0.00
62599;PMS7003;48671;48.922;2.346;2023-03-05T11:59:13;0.00;0.00;0.00
62599;PMS7003;48671;48.922;2.346;2023-03-05T12:01:44;0.00;0.00;0.00
62599;PMS7003;48671;48.922;2.346;2023-03-05T12:04:12;0.00;0.00;0.00
62599;PMS7003;48671;48.922;2.346;2023-03-05T12:06:42;0.00;0.00;0.00
62599;PMS7003;48671;48.922;2.346;2023-03-05T12:09:18;0.00;0.00;0.00
62599;PMS7003;48671;48.922;2.346;2023-03-05T12:11:46;0.00;0.00;0.00
62599;PMS7003;48671;48.922;2.346;2023-03-05T12:14:17;0.00;0.00;0.00
62599;PMS7003;48671;48.922;2.346;2023-03-05T12:19:49;0.00;0.00;0.00
62599;PMS7003;48671;48.922;2.346;2023-03-05T12:22:22;0.00;0.00;0.00
62599;PMS7003;48671;48.922;2.346;2023-03-05T12:24:49;0.00;0.00;0.00
62599;PMS7003;48671;48.922;2.346;2023-03-05T12:27:16;0.00;0.00;0.00
62599;PMS7003;48671;48.922;2.346;2023-03-05T12:29:56;0.00;0.00;0.00
62599;PMS7003;48671;48.922;2.346;2023-03-05T12:34:55;0.00;0.00;0.00
62599;PMS7003;48671;48.922;2.346;2023-03-05T12:47:39;0.00;0.00;0.00
62599;PMS7003;48671;48.922;2.346;2023-03-05T12:50:45;0.00;0.00;0.00
62599;PMS7003;48671;48.922;2.346;2023-03-05T12:52:54;0.00;0.00;0.00
62599;PMS7003;48671;48.922;2.346;2023-03-05T12:55:27;0.00;0.00;0.00
62599;PMS7003;48671;48.922;2.346;2023-03-05T12:57:58;0.00;0.00;0.00
62599;PMS7003;48671;48.922;2.346;2023-03-05T13:00:39;0.00;0.00;0.00
62599;PMS7003;48671;48.922;2.346;2023-03-05T13:03:10;0.00;0.00;0.00
62599;PMS7003;48671;48.922;2.346;2023-03-05T13:05:52;0.00;0.00;0.00
62599;PMS7003;48671;48.922;2.346;2023-03-05T13:13:45;0.00;0.00;0.00
62599;PMS7003;48671;48.922;2.346;2023-03-05T13:16:18;0.00;0.00;0.00
62599;PMS7003;48671;48.922;2.346;2023-03-05T13:18:49;0.00;0.00;0.00
62599;PMS7003;48671;48.922;2.346;2023-03-05T13:21:16;0.00;0.00;0.00
62599;PMS7003;48671;48.922;2.346;2023-03-05T13:23:47;0.00;0.00;0.00
62599;PMS7003;48671;48.922;2.346;2023-03-05T13:26:22;0.00;0.00;0.00
62599;PMS7003;48671;48.922;2.346;2023-03-05T13:31:43;0.00;0.00;0.00
62599;PMS7003;48671;48.922;2.346;2023-03-05T13:39:42;0.00;0.00;0.00
62599;PMS7003;48671;48.922;2.346;2023-03-05T13:42:15;0.00;0.00;0.00
62599;PMS7003;48671;48.922;2.346;2023-03-05T13:47:30;0.00;0.00;0.00
62599;PMS7003;48671;48.922;2.346;2023-03-05T13:50:01;0.00;0.00;0.00
62599;PMS7003;48671;48.922;2.346;2023-03-05T13:52:32;0.00;0.00;0.00
62599;PMS7003;48671;48.922;2.346;2023-03-05T13:55:00;0.00;0.00;0.00
62599;PMS7003;48671;48.922;2.346;2023-03-05T13:59:58;0.00;0.00;0.00
62599;PMS7003;48671;48.922;2.346;2023-03-05T14:02:24;0.00;0.00;0.00
62599;PMS7003;48671;48.922;2.346;2023-03-05T14:04:52;0.00;0.00;0.00
62599;PMS7003;48671;48.922;2.346;2023-03-05T14:07:24;0.00;0.00;0.00
62599;PMS7003;48671;48.922;2.346;2023-03-05T14:09:55;0.00;0.00;0.00
62599;PMS7003;48671;48.922;2.346;2023-03-05T14:14:51;0.00;0.00;0.00
62599;PMS7003;48671;48.922;2.346;2023-03-05T14:22:41;0.00;0.00;0.00
62599;PMS7003;48671;48.922;2.346;2023-03-05T14:30:44;0.00;0.00;0.00
62599;PMS7003;48671;48.922;2.346;2023-03-05T14:33:11;0.00;0.00;0.00
62599;PMS7003;48671;48.922;2.346;2023-03-05T14:35:37;0.00;0.00;0.00
62599;PMS7003;48671;48.922;2.346;2023-03-05T14:38:03;0.00;0.00;0.00
62599;PMS7003;48671;48.922;2.346;2023-03-05T14:40:30;0.00;0.00;0.00
62599;PMS7003;48671;48.922;2.346;2023-03-05T14:42:58;0.00;0.00;0.00
62599;PMS7003;48671;48.922;2.346;2023-03-05T14:45:25;0.00;0.00;0.00
62599;PMS7003;48671;48.922;2.346;2023-03-05T14:47:58;0.00;0.00;0.00
62599;PMS7003;48671;48.922;2.346;2023-03-05T14:50:32;0.00;0.00;0.00
62599;PMS7003;48671;48.922;2.346;2023-03-05T14:53:04;0.00;0.00;0.00
62599;PMS7003;48671;48.922;2.346;2023-03-05T14:55:37;0.00;0.00;0.00
62599;PMS7003;48671;48.922;2.346;2023-03-05T14:58:10;0.00;0.00;0.00
62599;PMS7003;48671;48.922;2.346;2023-03-05T15:00:38;0.00;0.00;0.00
62599;PMS7003;48671;48.922;2.346;2023-03-05T15:03:03;0.00;0.00;0.00
62599;PMS7003;48671;48.922;2.346;2023-03-05T15:05:29;0.00;0.00;0.00
62599;PMS7003;48671;48.922;2.346;2023-03-05T15:07:55;0.00;0.00;0.00
62599;PMS7003;48671;48.922;2.346;2023-03-05T15:10:21;0.00;0.00;0.00
62599;PMS7003;48671;48.922;2.346;2023-03-05T15:12:48;0.00;0.00;0.00
62599;PMS7003;48671;48.922;2.346;2023-03-05T15:15:15;0.00;0.00;0.00
62599;PMS7003;48671;48.922;2.346;2023-03-05T15:17:42;0.00;0.00;0.00
62599;PMS7003;48671;48.922;2.346;2023-03-05T15:20:20;0.00;0.00;0.00
62599;PMS7003;48671;48.922;2.346;2023-03-05T15:22:48;0.00;0.00;0.00
62599;PMS7003;48671;48.922;2.346;2023-03-05T15:25:13;0.00;0.00;0.00
62599;PMS7003;48671;48.922;2.346;2023-03-05T15:27:40;0.00;0.00;0.00
62599;PMS7003;48671;48.922;2.346;2023-03-05T15:30:06;0.00;0.00;0.00
62599;PMS7003;48671;48.922;2.346;2023-03-05T15:32:33;0.00;0.00;0.00